EDT,Max TemperatureF,Mean TemperatureF,Min TemperatureF,Max Dew PointF,MeanDew PointF,Min DewpointF,Max Humidity, Mean Humidity, Min Humidity, Max Sea Level PressureIn, Mean Sea Level PressureIn, Min Sea Level PressureIn, Max VisibilityMiles, Mean VisibilityMiles, Min VisibilityMiles, Max Wind SpeedMPH, Mean Wind SpeedMPH, Max Gust SpeedMPH,PrecipitationIn, CloudCover, Events, WindDirDegrees
2013-9-1,82,74,66,70,67,66,100,81,62,29.90,29.83,29.76,10,6,0,13,5,16,0.22,7,Fog-Thunderstorm,153
2013-9-2,70,66,62,68,65,61,100,97,93,29.89,29.83,29.74,10,3,0,25,7,30,2.26,8,Fog-Rain-Thunderstorm,88
2013-9-3,76,69,62,70,67,61,100,87,74,29.78,29.72,29.70,10,5,0,14,4,17,0.09,7,Fog-Rain,203
2013-9-4,80,69,58,60,56,52,97,68,39,29.89,29.82,29.76,10,10,10,16,7,21,0.00,2,,265
2013-9-5,66,58,49,59,52,41,93,75,57,30.14,29.98,29.86,10,10,5,14,7,21,0.10,5,Rain,24
2013-9-6,68,56,44,49,42,38,86,62,37,30.23,30.15,30.05,10,10,10,14,6,19,0.00,0,,240
2013-9-7,79,64,48,54,49,44,86,61,36,30.04,29.93,29.80,10,10,10,15,6,20,T,2,Rain,231
2013-9-8,69,57,45,57,47,37,86,64,42,30.07,29.83,29.72,10,10,10,25,11,34,0.01,4,,306
2013-9-9,69,55,40,52,43,38,89,63,37,30.22,30.14,30.09,10,10,10,14,7,19,0.00,0,,227
2013-9-10,66,60,54,63,58,48,100,87,73,30.13,30.07,30.02,10,8,3,14,5,,0.06,6,Rain,186
2013-9-11,93,77,61,74,67,60,100,75,49,30.04,29.99,29.90,10,6,1,37,6,47,0.36,4,Rain-Thunderstorm,245
2013-9-12,78,72,65,71,67,64,100,88,76,29.94,29.78,29.67,10,5,1,14,6,24,1.59,6,Rain-Thunderstorm,190
2013-9-13,72,65,57,66,63,55,100,92,84,29.73,29.63,29.59,10,7,0,17,6,26,1.68,7,Fog-Rain,320
2013-9-14,71,62,52,57,54,48,93,75,57,30.03,29.87,29.73,10,10,7,12,6,26,T,6,,297
2013-9-15,66,56,46,53,49,45,93,76,58,30.13,30.07,30.01,10,10,10,14,5,18,T,0,,222
2013-9-16,68,56,44,54,47,33,86,70,53,30.27,30.06,29.98,10,10,10,18,9,26,0.01,3,Rain,311
2013-9-17,65,53,41,46,39,33,86,65,43,30.42,30.34,30.29,10,10,10,16,7,21,0.00,0,,328
2013-9-18,70,56,42,52,45,40,96,68,40,30.30,30.21,30.11,10,10,10,12,3,18,0.00,0,,235
2013-9-19,73,59,44,52,47,43,93,67,41,30.13,30.08,30.03,10,10,10,12,4,14,0.00,0,Fog,173
2013-9-20,74,61,47,56,51,46,100,72,44,30.11,30.05,30.03,10,8,0,12,3,14,0.00,1,Fog,116
2013-9-21,66,60,53,60,57,53,100,89,78,30.04,29.92,29.75,10,6,0,20,8,26,0.00,6,Fog,194
2013-9-22,71,60,48,63,57,43,93,69,44,29.78,29.66,29.60,10,9,1,17,10,24,0.34,6,Rain,212
2013-9-23,61,52,42,42,39,37,89,70,51,29.97,29.88,29.80,10,10,10,23,11,29,0.00,1,,310
2013-9-24,61,50,38,42,40,36,92,72,51,29.95,29.89,29.83,10,10,10,20,7,25,0.00,2,,308
2013-9-25,63,53,42,46,44,40,92,72,51,29.99,29.92,29.88,10,10,10,16,7,27,0.00,6,,327
2013-9-26,66,55,44,49,46,42,93,73,52,30.14,30.05,30.00,10,10,10,16,8,21,0.00,4,,353
2013-9-27,71,62,53,53,51,48,93,73,53,30.26,30.20,30.14,10,10,10,10,6,18,0.00,5,,340
2013-9-28,71,59,46,54,51,47,100,77,53,30.35,30.30,30.26,10,10,2,12,4,13,0.00,0,,167
2013-9-29,64,54,43,52,47,44,100,78,56,30.28,30.22,30.14,10,5,0,12,4,16,0.00,2,Fog,215
2013-9-30,61,51,40,52,44,38,100,82,64,30.14,30.09,29.98,10,4,0,10,4,,0.00,4,Fog,321